Time;durP1;ratioP1;P1;durP2;ratioP2;P2;SDS_P1;SDS_P2;PMS_P1;PMS_P2;Temp;Humidity;BMP_temperature;BMP_pressure;BME280_temperature;BME280_humidity;BME280_pressure;Samples;Min_cycle;Max_cycle;Signal;HPM_P1;HPM_P2
2023/10/12 00:02:21;;;;;;;7.20;3.80;;;;;;;9.51;100.00;99816.08;106165;1250;72592;-72
2023/10/12 00:04:53;;;;;;;12.60;4.00;;;;;;;9.49;100.00;99809.29;106412;1251;60423;-74
2023/10/12 00:07:33;;;;;;;9.30;4.90;;;;;;;9.48;100.00;99809.48;106191;1251;60391;-74
2023/10/12 00:12:47;;;;;;;9.40;4.10;;;;;;;9.48;100.00;99803.02;106155;1256;71156;-73
2023/10/12 00:18:08;;;;;;;;;;;;;;;9.48;100.00;99801.09;106633;1250;60537;-72
2023/10/12 00:20:37;;;;;;;8.20;4.00;;;;;;;9.48;100.00;99794.27;106272;1256;60446;-73
2023/10/12 00:23:10;;;;;;;8.40;4.00;;;;;;;9.48;100.00;99789.52;106128;1254;72448;-73
2023/10/12 00:25:46;;;;;;;12.70;4.40;;;;;;;9.48;100.00;99779.02;106192;1251;69842;-72
2023/10/12 00:28:19;;;;;;;16.60;4.30;;;;;;;9.49;100.00;99776.36;107474;1254;72429;-72
2023/10/12 00:30:54;;;;;;;14.40;4.50;;;;;;;9.51;100.00;99771.45;106473;1255;60572;-73
2023/10/12 00:33:21;;;;;;;10.80;4.20;;;;;;;9.54;100.00;99768.39;106177;1251;60419;-72
2023/10/12 00:35:59;;;;;;;14.30;5.30;;;;;;;9.56;100.00;99763.42;106974;1254;71345;-74
2023/10/12 00:38:29;;;;;;;12.80;4.30;;;;;;;9.60;100.00;99765.58;106167;1251;71163;-73
2023/10/12 00:41:04;;;;;;;17.10;5.00;;;;;;;9.62;100.00;99760.28;107048;1251;71269;-72
2023/10/12 00:43:36;;;;;;;10.20;4.40;;;;;;;9.64;100.00;99760.58;105420;1251;1002571;-71
2023/10/12 00:49:40;;;;;;;10.40;4.40;;;;;;;9.70;100.00;99760.42;106213;1255;73976;-73
2023/10/12 00:51:51;;;;;;;9.60;3.70;;;;;;;9.72;100.00;99760.04;107062;1251;71320;-73
2023/10/12 00:54:41;;;;;;;8.90;4.20;;;;;;;9.73;100.00;99757.37;106098;1253;72595;-74
2023/10/12 00:57:10;;;;;;;14.20;4.10;;;;;;;9.75;100.00;99757.13;106155;1251;60438;-73
2023/10/12 00:59:38;;;;;;;11.00;4.20;;;;;;;9.76;100.00;99753.77;106178;1255;61174;-74
2023/10/12 01:02:09;;;;;;;13.70;4.10;;;;;;;9.79;100.00;99743.00;107026;1251;72482;-74
2023/10/12 01:04:37;;;;;;;14.00;4.00;;;;;;;9.80;100.00;99747.52;106169;1251;71267;-75
2023/10/12 01:07:06;;;;;;;10.20;4.30;;;;;;;9.81;100.00;99746.09;106189;1252;71413;-73
2023/10/12 01:09:39;;;;;;;9.40;4.30;;;;;;;9.81;100.00;99743.30;106136;1254;60421;-73
2023/10/12 01:12:34;;;;;;;11.50;4.50;;;;;;;9.81;100.00;99742.24;106989;1251;61488;-73
2023/10/12 01:15:11;;;;;;;12.70;4.70;;;;;;;9.81;100.00;99733.65;106524;1251;73317;-74
2023/10/12 01:17:40;;;;;;;11.60;4.60;;;;;;;9.81;100.00;99724.02;107730;1251;71234;-74
2023/10/12 01:20:11;;;;;;;8.20;3.70;;;;;;;9.80;100.00;99725.80;106264;1254;71337;-74
2023/10/12 01:22:39;;;;;;;11.20;4.20;;;;;;;9.79;100.00;99722.50;106275;1250;60763;-72
2023/10/12 01:25:20;;;;;;;11.10;4.20;;;;;;;9.78;100.00;99730.26;106157;1254;60378;-73
2023/10/12 01:27:47;;;;;;;15.90;4.40;;;;;;;9.76;100.00;99722.08;107111;1251;72778;-72
2023/10/12 01:30:23;;;;;;;11.20;4.30;;;;;;;9.74;100.00;99723.01;106505;1254;69630;-73
2023/10/12 01:33:02;;;;;;;9.20;4.00;;;;;;;9.71;100.00;99724.14;106569;1254;72953;-74
2023/10/12 01:35:33;;;;;;;12.60;4.30;;;;;;;9.67;100.00;99723.19;107420;1251;60494;-73
2023/10/12 01:38:01;;;;;;;9.30;3.90;;;;;;;9.66;100.00;99724.27;106630;1254;60543;-72
2023/10/12 01:40:42;;;;;;;7.30;4.10;;;;;;;9.64;100.00;99729.05;106651;1254;73850;-74
2023/10/12 01:43:12;;;;;;;7.80;4.10;;;;;;;9.62;100.00;99728.58;106134;1251;71019;-73
2023/10/12 01:45:41;;;;;;;8.30;3.60;;;;;;;9.60;100.00;99726.02;106424;1251;72965;-72
2023/10/12 01:48:12;;;;;;;11.30;3.90;;;;;;;9.56;100.00;99729.08;107915;1250;60461;-72
2023/10/12 01:50:40;;;;;;;14.70;4.20;;;;;;;9.54;100.00;99721.44;105409;1254;1003444;-74
2023/10/12 01:55:51;;;;;;;10.50;3.80;;;;;;;9.48;100.00;99726.34;107345;1251;71014;-72
2023/10/12 01:58:19;;;;;;;6.70;3.80;;;;;;;9.45;100.00;99723.95;106391;1254;71243;-74
2023/10/12 02:00:53;;;;;;;10.40;3.70;;;;;;;9.43;100.00;99723.85;106122;1250;60371;-74
2023/10/12 02:03:31;;;;;;;10.70;4.30;;;;;;;9.38;100.00;99723.10;106717;1251;60460;-75
2023/10/12 02:05:59;;;;;;;7.20;3.60;;;;;;;9.34;100.00;99718.84;106207;1251;73771;-73
2023/10/12 02:08:52;;;;;;;9.70;3.60;;;;;;;9.31;100.00;99713.46;106207;1251;71002;-72
2023/10/12 02:13:50;;;;;;;6.00;3.80;;;;;;;9.26;100.00;99709.23;106122;1251;60451;-72
2023/10/12 02:16:30;;;;;;;8.30;3.70;;;;;;;9.23;100.00;99706.85;106283;1251;60448;-74
2023/10/12 02:18:58;;;;;;;8.30;3.70;;;;;;;9.20;100.00;99704.66;104553;1256;1003039;-74
2023/10/12 02:21:26;;;;;;;9.70;3.90;;;;;;;9.17;100.00;99701.40;106999;1250;70952;-72
2023/10/12 02:26:37;;;;;;;9.10;4.50;;;;;;;9.11;100.00;99702.77;106201;1251;60507;-74
2023/10/12 02:31:39;;;;;;;9.50;4.20;;;;;;;9.03;100.00;99695.98;107036;1251;73006;-73
2023/10/12 02:34:12;;;;;;;8.10;4.40;;;;;;;9.01;100.00;99696.23;107487;1251;70959;-73
2023/10/12 02:36:39;;;;;;;6.20;3.50;;;;;;;8.99;100.00;99692.44;106200;1254;72675;-73
2023/10/12 02:39:15;;;;;;;10.50;3.90;;;;;;;8.96;100.00;99687.23;106581;1251;60405;-74
2023/10/12 02:41:50;;;;;;;7.60;4.20;;;;;;;8.95;100.00;99685.88;106208;1251;60537;-74
2023/10/12 02:44:19;;;;;;;10.70;4.00;;;;;;;8.93;100.00;99684.52;106356;1251;73752;-74
2023/10/12 02:47:04;;;;;;;13.20;4.20;;;;;;;8.91;100.00;99684.19;106093;1257;70911;-73
2023/10/12 02:49:39;;;;;;;13.50;4.20;;;;;;;8.89;100.00;99682.88;107221;1250;72395;-73
2023/10/12 02:52:08;;;;;;;13.00;4.20;;;;;;;8.88;100.00;99678.71;106487;1251;60341;-74
2023/10/12 02:54:49;;;;;;;12.80;4.30;;;;;;;8.84;100.00;99679.48;107362;1251;60401;-73
2023/10/12 02:57:31;;;;;;;6.30;4.10;;;;;;;8.82;100.00;99678.14;107371;1251;73909;-75
2023/10/12 03:00:01;;;;;;;11.10;4.30;;;;;;;8.80;100.00;99674.36;106860;1250;71547;-73
2023/10/12 03:02:32;;;;;;;12.00;4.60;;;;;;;8.77;100.00;99674.08;108396;1251;1002902;-72
2023/10/12 03:05:06;;;;;;;10.20;3.80;;;;;;;8.76;100.00;99674.11;109420;1250;60353;-72
2023/10/12 03:07:40;;;;;;;13.50;4.10;;;;;;;8.75;100.00;99672.20;109125;1251;59248;-72
2023/10/12 03:10:15;;;;;;;14.40;4.60;;;;;;;8.75;100.00;99670.62;108100;1254;72481;-73
2023/10/12 03:12:43;;;;;;;10.00;4.00;;;;;;;8.74;100.00;99672.04;108699;1250;69974;-73
2023/10/12 03:15:13;;;;;;;12.50;4.50;;;;;;;8.74;100.00;99671.34;109436;1251;71155;-73
2023/10/12 03:17:45;;;;;;;12.30;4.50;;;;;;;8.74;100.00;99671.16;109563;1250;58101;-73
2023/10/12 03:20:20;;;;;;;12.30;4.30;;;;;;;8.73;100.00;99670.15;107633;1250;60480;-72
2023/10/12 03:22:53;;;;;;;9.40;4.30;;;;;;;8.73;100.00;99666.48;107795;1251;73828;-72
2023/10/12 03:25:28;;;;;;;12.40;4.60;;;;;;;8.72;100.00;99661.25;106212;1251;71132;-73
2023/10/12 03:27:56;;;;;;;15.50;4.30;;;;;;;8.71;100.00;99656.73;106162;1254;72468;-72
2023/10/12 03:30:34;;;;;;;18.90;4.20;;;;;;;8.68;100.00;99661.17;106152;1254;60818;-73
2023/10/12 03:33:09;;;;;;;12.60;4.10;;;;;;;8.66;100.00;99654.94;108373;1250;60463;-73
2023/10/12 03:35:51;;;;;;;15.10;4.20;;;;;;;8.62;100.00;99660.97;106587;1251;73865;-73
2023/10/12 03:38:19;;;;;;;8.80;4.00;;;;;;;8.59;100.00;99658.42;106143;1254;69392;-73
2023/10/12 03:40:50;;;;;;;11.80;3.90;;;;;;;8.55;100.00;99659.57;106357;1251;72476;-72
2023/10/12 03:43:26;;;;;;;11.30;4.80;;;;;;;8.53;100.00;99663.45;106208;1250;60585;-73
2023/10/12 03:46:18;;;;;;;14.50;4.70;;;;;;;8.52;100.00;99660.34;106178;1251;60543;-73
2023/10/12 03:49:06;;;;;;;14.90;3.90;;;;;;;8.51;100.00;99654.77;106220;1254;73802;-74
2023/10/12 03:51:43;;;;;;;7.70;4.10;;;;;;;8.49;100.00;99653.23;106152;1251;71496;-73
2023/10/12 03:57:07;;;;;;;11.90;3.50;;;;;;;8.46;100.00;99652.09;106249;1250;60913;-73
2023/10/12 03:59:44;;;;;;;8.60;3.90;;;;;;;8.45;100.00;99652.30;107484;1250;60389;-72
2023/10/12 04:02:15;;;;;;;17.10;3.90;;;;;;;8.43;100.00;99651.27;105868;1251;1003775;-71
2023/10/12 04:04:59;;;;;;;10.90;4.30;;;;;;;8.41;100.00;99649.73;106474;1250;71140;-72
2023/10/12 04:07:56;;;;;;;11.20;4.30;;;;;;;8.39;100.00;99648.89;106199;1254;71606;-74
2023/10/12 04:16:27;;;;;;;14.60;4.60;;;;;;;8.37;100.00;99648.24;106521;1251;72677;-73
2023/10/12 04:21:27;;;;;;;23.90;4.70;;;;;;;8.36;100.00;99650.70;107043;1251;72665;-74
2023/10/12 04:27:00;;;;;;;21.20;5.20;;;;;;;8.37;100.00;99660.83;106157;1250;60496;-74
2023/10/12 04:29:30;;;;;;;5.60;3.80;;;;;;;8.38;100.00;99657.83;107356;1250;74158;-72
2023/10/12 04:32:09;;;;;;;18.40;4.60;;;;;;;8.38;100.00;99660.61;107000;1254;69465;-73
2023/10/12 04:34:48;;;;;;;15.20;4.10;;;;;;;8.40;100.00;99654.47;106145;1251;72512;-73
2023/10/12 04:37:22;;;;;;;10.40;4.60;;;;;;;8.39;100.00;99660.44;107559;1251;60460;-73
2023/10/12 04:39:49;;;;;;;9.90;3.80;;;;;;;8.41;100.00;99661.61;106227;1254;60316;-74
2023/10/12 04:42:23;;;;;;;9.00;4.40;;;;;;;8.43;100.00;99659.83;106199;1251;72150;-73
2023/10/12 04:45:22;;;;;;;;;;;;;;;8.46;100.00;99658.58;107416;1251;68858;-72
2023/10/12 04:47:56;;;;;;;18.90;4.70;;;;;;;8.48;100.00;99654.66;106597;1254;72663;-73
2023/10/12 04:50:43;;;;;;;10.90;4.40;;;;;;;8.50;100.00;99650.60;106894;1251;60483;-74
2023/10/12 04:53:12;;;;;;;13.00;4.50;;;;;;;8.52;100.00;99644.77;106187;1250;60234;-72
2023/10/12 04:55:47;;;;;;;11.90;4.80;;;;;;;8.55;100.00;99646.45;107459;1251;72886;-74
2023/10/12 04:58:36;;;;;;;16.80;5.10;;;;;;;8.58;100.00;99644.63;106469;1251;71210;-73
2023/10/12 05:01:16;;;;;;;16.40;4.90;;;;;;;8.62;100.00;99645.95;106173;1254;71399;-75
2023/10/12 05:04:04;;;;;;;11.00;4.60;;;;;;;8.66;100.00;99652.31;107714;1250;60461;-74
2023/10/12 05:06:32;;;;;;;13.60;4.90;;;;;;;8.69;100.00;99656.23;106188;1251;61790;-73
2023/10/12 05:09:04;;;;;;;12.00;4.70;;;;;;;8.75;100.00;99653.67;106199;1253;73564;-75
2023/10/12 05:11:32;;;;;;;18.10;5.40;;;;;;;8.81;100.00;99656.84;106162;1251;71262;-75
2023/10/12 05:14:01;;;;;;;10.70;5.30;;;;;;;8.86;100.00;99655.14;106963;1250;72684;-76
2023/10/12 05:16:30;;;;;;;15.10;4.70;;;;;;;8.91;100.00;99652.56;106358;1250;60529;-74
2023/10/12 05:18:58;;;;;;;21.40;4.80;;;;;;;8.97;100.00;99656.45;106151;1254;60533;-74
2023/10/12 05:21:25;;;;;;;13.10;5.50;;;;;;;9.01;100.00;99656.33;106943;1250;73187;-72
2023/10/12 05:23:52;;;;;;;9.10;4.10;;;;;;;9.06;100.00;99657.07;106154;1251;71040;-73
2023/10/12 05:26:25;;;;;;;16.50;5.20;;;;;;;9.12;100.00;99655.34;106191;1250;72461;-73
2023/10/12 05:29:17;;;;;;;12.90;4.50;;;;;;;9.19;100.00;99654.64;106256;1251;60407;-74
2023/10/12 05:31:57;;;;;;;10.50;4.40;;;;;;;9.26;100.00;99656.88;106929;1250;60476;-75
2023/10/12 05:37:23;;;;;;;11.20;4.50;;;;;;;9.40;100.00;99654.59;106631;1251;71086;-73
2023/10/12 05:39:55;;;;;;;8.30;4.50;;;;;;;9.48;100.00;99656.28;106091;1251;72438;-73
2023/10/12 05:42:25;;;;;;;18.00;4.90;;;;;;;9.56;100.00;99656.06;107095;1253;60451;-75
2023/10/12 05:44:53;;;;;;;20.00;5.90;;;;;;;9.64;100.00;99665.80;106154;1250;60457;-74
2023/10/12 05:47:28;;;;;;;16.90;5.40;;;;;;;9.73;100.00;99663.66;106207;1250;72414;-73
2023/10/12 05:49:58;;;;;;;15.80;5.00;;;;;;;9.79;100.00;99668.03;107047;1250;71569;-74
2023/10/12 05:52:25;;;;;;;15.60;4.90;;;;;;;9.85;100.00;99663.30;106185;1250;71197;-72
2023/10/12 05:54:58;;;;;;;14.00;4.60;;;;;;;9.90;100.00;99657.55;106191;1254;60568;-74
2023/10/12 05:57:29;;;;;;;12.50;4.30;;;;;;;9.95;100.00;99662.83;106155;1250;60365;-74
2023/10/12 05:59:59;;;;;;;12.50;4.30;;;;;;;9.99;100.00;99661.45;106208;1250;72593;-72
2023/10/12 06:02:26;;;;;;;13.40;4.50;;;;;;;10.04;100.00;99661.16;106096;1250;69600;-74
2023/10/12 06:04:53;;;;;;;16.40;4.90;;;;;;;10.10;100.00;99659.75;107104;1250;72636;-74
2023/10/12 06:07:22;;;;;;;14.30;4.20;;;;;;;10.16;100.00;99654.49;106181;1251;60571;-73
2023/10/12 06:09:52;;;;;;;10.10;4.40;;;;;;;10.23;100.00;99651.63;106263;1250;60472;-73
2023/10/12 06:12:24;;;;;;;10.40;5.00;;;;;;;10.30;100.00;99644.59;106646;1254;73805;-74
2023/10/12 06:14:54;;;;;;;18.50;4.50;;;;;;;10.35;100.00;99649.54;107370;1251;69889;-74
2023/10/12 06:17:39;;;;;;;14.80;4.80;;;;;;;10.39;100.00;99646.41;106629;1251;72564;-74
2023/10/12 06:20:15;;;;;;;;;;;;;;;10.46;100.00;99642.19;106457;1254;60323;-73
2023/10/12 06:22:41;;;;;;;11.60;5.10;;;;;;;10.55;100.00;99658.94;107044;1250;60502;-73
2023/10/12 06:25:11;;;;;;;15.60;5.20;;;;;;;10.64;100.00;99653.36;106191;1254;73633;-73
2023/10/12 06:27:38;;;;;;;17.70;5.00;;;;;;;10.73;100.00;99648.33;107369;1250;71002;-72
2023/10/12 06:30:17;;;;;;;14.10;5.00;;;;;;;10.82;100.00;99652.27;106591;1250;71421;-73
2023/10/12 06:32:47;;;;;;;15.40;5.10;;;;;;;10.90;100.00;99652.68;106422;1252;60970;-73
2023/10/12 06:45:51;;;;;;;11.40;5.20;;;;;;;11.45;100.00;99648.30;107014;1254;60510;-74
2023/10/12 06:51:05;;;;;;;10.00;5.60;;;;;;;11.69;100.00;99648.33;106699;1254;73774;-73
2023/10/12 06:53:36;;;;;;;11.40;5.50;;;;;;;11.80;100.00;99638.23;107503;1250;69332;-73
2023/10/12 06:59:07;;;;;;;15.00;4.80;;;;;;;12.02;100.00;99638.84;106996;1254;60584;-73
2023/10/12 07:04:20;;;;;;;13.90;4.60;;;;;;;12.22;100.00;99639.29;106941;1250;71817;-74
2023/10/12 07:06:59;;;;;;;10.20;4.40;;;;;;;12.35;100.00;99631.94;107216;1252;69679;-74
2023/10/12 07:09:40;;;;;;;7.40;4.40;;;;;;;12.50;100.00;99631.17;107255;1250;71394;-74
2023/10/12 07:12:10;;;;;;;14.20;3.60;;;;;;;12.65;100.00;99627.04;106699;1250;60368;-74
2023/10/12 07:14:38;;;;;;;20.60;4.70;;;;;;;12.81;100.00;99627.74;106927;1251;60428;-73
2023/10/12 07:17:07;;;;;;;9.30;3.70;;;;;;;12.98;100.00;99618.05;104691;1254;1003051;-73
2023/10/12 07:19:35;;;;;;;10.40;4.50;;;;;;;13.16;100.00;99619.75;106226;1250;71431;-73
2023/10/12 07:22:08;;;;;;;11.10;4.50;;;;;;;13.34;100.00;99614.20;106148;1250;72551;-75
2023/10/12 07:24:38;;;;;;;14.50;4.40;;;;;;;13.53;100.00;99611.10;107947;1250;60556;-72
2023/10/12 07:27:21;;;;;;;13.70;4.70;;;;;;;13.70;100.00;99609.63;107074;1252;60354;-75
2023/10/12 07:30:02;;;;;;;11.40;4.40;;;;;;;13.87;100.00;99597.94;106159;1254;73859;-75
2023/10/12 07:32:38;;;;;;;14.50;4.10;;;;;;;14.03;100.00;99592.23;106176;1250;71026;-73
2023/10/12 07:35:53;;;;;;;8.80;4.10;;;;;;;14.21;100.00;99589.94;106438;1250;73007;-72
2023/10/12 07:37:55;;;;;;;16.60;4.40;;;;;;;14.38;100.00;99588.77;106980;1250;60552;-74
2023/10/12 07:40:34;;;;;;;9.80;3.90;;;;;;;14.49;100.00;99583.63;106690;1250;60421;-73
2023/10/12 07:43:07;;;;;;;12.80;3.50;;;;;;;14.60;100.00;99582.40;106174;1254;73854;-73
2023/10/12 07:45:47;;;;;;;12.90;4.30;;;;;;;14.70;100.00;99583.33;106218;1252;69666;-73
2023/10/12 07:48:31;;;;;;;7.40;3.70;;;;;;;14.77;100.00;99579.08;106178;1250;72489;-74
2023/10/12 07:53:51;;;;;;;12.10;4.50;;;;;;;15.06;100.00;99578.86;106992;1254;60147;-72
2023/10/12 07:56:22;;;;;;;12.20;3.80;;;;;;;15.19;100.00;99567.55;106357;1256;73644;-74
2023/10/12 07:58:58;;;;;;;8.10;3.90;;;;;;;15.32;100.00;99566.19;106524;1250;71647;-74
2023/10/12 08:03:53;;;;;;;10.00;4.10;;;;;;;15.60;100.00;99562.37;106184;1251;60480;-75
2023/10/12 08:09:21;;;;;;;13.20;3.90;;;;;;;15.79;100.00;99561.56;106162;1250;73279;-75
2023/10/12 08:11:47;;;;;;;11.00;4.20;;;;;;;15.90;100.00;99556.13;106944;1250;71196;-75
2023/10/12 08:19:43;;;;;;;9.40;4.60;;;;;;;16.19;100.00;99560.38;106985;1251;60810;-74
2023/10/12 08:22:26;;;;;;;24.70;5.50;;;;;;;16.31;100.00;99560.77;106531;1251;73915;-74
2023/10/12 08:24:58;;;;;;;13.90;4.20;;;;;;;16.48;100.00;99560.67;106135;1254;69635;-72
2023/10/12 08:27:39;;;;;;;16.90;4.50;;;;;;;16.64;100.00;99565.58;107030;1254;71379;-73
2023/10/12 08:30:48;;;;;;;16.30;4.10;;;;;;;16.72;100.00;99555.69;106434;1250;60817;-74
2023/10/12 08:33:14;;;;;;;7.60;3.30;;;;;;;16.75;100.00;99554.15;106111;1250;60560;-75
2023/10/12 08:38:33;;;;;;;12.50;4.70;;;;;;;16.85;100.00;99545.40;106295;1250;70918;-75
2023/10/12 08:44:04;;;;;;;9.80;3.60;;;;;;;16.94;100.00;99537.05;106349;1260;60492;-74
2023/10/12 08:52:04;;;;;;;12.80;3.70;;;;;;;17.15;100.00;99540.60;107366;1250;69713;-74
2023/10/12 08:54:40;;;;;;;8.60;3.40;;;;;;;17.25;100.00;99538.86;106186;1250;71662;-72
2023/10/12 08:57:19;;;;;;;9.80;3.60;;;;;;;17.35;100.00;99530.28;106506;1252;60451;-72
2023/10/12 08:59:58;;;;;;;11.40;3.80;;;;;;;17.49;100.00;99529.94;107259;1250;60546;-73
2023/10/12 09:02:25;;;;;;;11.00;3.80;;;;;;;17.62;100.00;99520.63;106191;1254;73533;-74
2023/10/12 09:04:52;;;;;;;13.00;4.20;;;;;;;17.72;100.00;99522.84;106266;1250;71141;-74
2023/10/12 09:07:19;;;;;;;16.60;4.10;;;;;;;17.80;100.00;99515.73;106515;1250;71176;-74
2023/10/12 09:09:54;;;;;;;9.80;3.80;;;;;;;17.89;100.00;99513.07;107468;1250;62273;-74
2023/10/12 09:12:23;;;;;;;12.20;3.70;;;;;;;18.05;100.00;99506.34;106585;1250;60553;-73
2023/10/12 09:14:54;;;;;;;8.80;4.10;;;;;;;18.21;100.00;99508.45;106642;1252;74018;-73
2023/10/12 09:17:29;;;;;;;16.40;3.30;;;;;;;18.34;100.00;99507.80;106246;1251;71520;-74
2023/10/12 09:20:28;;;;;;;17.50;4.60;;;;;;;18.42;100.00;99498.20;107410;1251;72738;-74
2023/10/12 09:23:03;;;;;;;14.70;4.10;;;;;;;18.56;100.00;99492.48;106698;1250;60416;-74
2023/10/12 09:25:59;;;;;;;13.80;3.70;;;;;;;18.67;100.00;99487.27;106622;1250;61399;-74
2023/10/12 09:28:42;;;;;;;13.00;4.20;;;;;;;18.83;100.00;99482.31;106847;1250;73591;-74
2023/10/12 09:31:13;;;;;;;13.60;3.90;;;;;;;19.00;100.00;99485.40;106230;1250;70861;-74
2023/10/12 09:33:53;;;;;;;13.90;3.40;;;;;;;19.13;100.00;99477.94;107625;1250;72134;-74
2023/10/12 09:36:22;;;;;;;16.50;4.20;;;;;;;19.29;100.00;99478.38;106182;1250;60465;-74
2023/10/12 09:38:50;;;;;;;7.70;4.10;;;;;;;19.45;100.00;99477.74;106245;1250;60298;-73
2023/10/12 09:41:33;;;;;;;11.30;3.60;;;;;;;19.58;100.00;99471.34;107010;1250;72579;-73
2023/10/12 09:44:06;;;;;;;11.90;3.80;;;;;;;19.67;100.00;99463.00;106088;1250;71116;-74
2023/10/12 09:46:33;;;;;;;10.60;3.30;;;;;;;19.79;100.00;99456.69;106295;1250;72572;-74
2023/10/12 09:49:06;;;;;;;18.60;3.60;;;;;;;19.96;100.00;99457.91;105989;1256;60534;-74
2023/10/12 09:51:36;;;;;;;20.40;3.70;;;;;;;20.02;100.00;99452.46;106944;1250;60246;-73
2023/10/12 09:54:18;;;;;;;15.20;3.50;;;;;;;20.02;100.00;99450.86;106705;1250;73750;-74
2023/10/12 09:56:47;;;;;;;19.00;3.90;;;;;;;20.08;100.00;99445.49;106372;1250;70992;-74
2023/10/12 09:59:18;;;;;;;9.10;3.50;;;;;;;20.13;100.00;99437.02;106924;1250;73127;-73
2023/10/12 10:09:56;;;;;;;12.10;3.80;;;;;;;20.09;100.00;99419.20;107212;1250;71264;-75
2023/10/12 10:12:24;;;;;;;18.10;3.50;;;;;;;20.14;100.00;99412.39;106490;1250;72367;-74
2023/10/12 10:14:54;;;;;;;11.80;3.30;;;;;;;20.15;100.00;99414.80;107308;1250;60836;-74
2023/10/12 10:17:24;;;;;;;13.80;3.60;;;;;;;20.16;100.00;99410.82;106409;1250;61421;-74
2023/10/12 10:21:12;;;;;;;13.90;3.20;;;;;;;20.21;100.00;99406.67;107646;1252;73781;-74
2023/10/12 10:23:14;;;;;;;17.40;3.00;;;;;;;20.28;100.00;99406.71;106162;1250;71515;-75
2023/10/12 10:25:50;;;;;;;11.00;3.00;;;;;;;20.40;100.00;99400.45;106231;1260;72285;-74
2023/10/12 10:28:24;;;;;;;5.00;2.80;;;;;;;20.57;100.00;99393.43;106586;1250;60394;-74
2023/10/12 10:30:52;;;;;;;13.80;3.90;;;;;;;20.72;100.00;99399.19;106246;1254;60407;-73
2023/10/12 10:33:23;;;;;;;8.50;3.10;;;;;;;20.86;100.00;99385.52;106616;1254;73944;-74
2023/10/12 10:36:10;;;;;;;14.90;3.10;;;;;;;20.90;98.82;99383.54;107078;1250;71104;-74
2023/10/12 10:38:54;;;;;;;11.90;3.20;;;;;;;20.92;99.94;99387.50;106833;1250;481790;-74
2023/10/12 10:41:23;;;;;;;20.70;3.60;;;;;;;20.96;99.11;99386.78;106182;1250;60462;-74
2023/10/12 10:43:53;;;;;;;14.60;3.00;;;;;;;20.98;100.00;99380.05;106567;1254;60816;-74
2023/10/12 10:46:26;;;;;;;7.50;3.10;;;;;;;21.03;99.95;99388.02;106204;1250;73654;-75
2023/10/12 10:48:53;;;;;;;9.60;2.80;;;;;;;21.03;98.98;99378.76;107218;1250;69995;-74
2023/10/12 10:51:32;;;;;;;10.60;3.10;;;;;;;20.97;100.00;99374.92;106362;1250;73129;-74
2023/10/12 10:53:59;;;;;;;12.90;2.90;;;;;;;20.92;100.00;99375.70;106107;1251;60539;-73
2023/10/12 10:56:35;;;;;;;17.30;3.60;;;;;;;20.90;100.00;99372.48;106181;1254;60546;-74
2023/10/12 10:59:13;;;;;;;19.90;3.60;;;;;;;20.98;100.00;99368.65;107081;1250;73172;-73
2023/10/12 11:01:48;;;;;;;18.80;3.00;;;;;;;21.10;100.00;99362.50;106373;1250;71335;-74
2023/10/12 11:07:03;;;;;;;17.10;3.20;;;;;;;21.22;100.00;99357.30;107025;1250;61093;-73
2023/10/12 11:09:31;;;;;;;15.80;2.70;;;;;;;21.21;99.03;99361.27;106439;1250;60533;-74
2023/10/12 11:11:59;;;;;;;16.70;3.10;;;;;;;21.16;98.86;99351.30;106217;1250;72121;-74
2023/10/12 11:14:31;;;;;;;8.70;3.20;;;;;;;21.11;99.62;99354.89;106399;1250;70789;-74
2023/10/12 11:17:04;;;;;;;14.50;3.10;;;;;;;21.15;100.00;99349.95;106734;1250;72992;-73
2023/10/12 11:19:33;;;;;;;12.60;2.90;;;;;;;21.29;100.00;99344.36;106747;1250;60937;-73
2023/10/12 11:21:59;;;;;;;15.00;2.80;;;;;;;21.48;99.23;99335.88;106943;1250;60463;-75
2023/10/12 11:24:28;;;;;;;17.10;2.90;;;;;;;21.65;96.72;99335.36;106231;1251;72289;-74
2023/10/12 11:26:57;;;;;;;8.90;3.00;;;;;;;21.79;92.71;99328.12;106179;1254;69785;-74
2023/10/12 11:29:24;;;;;;;12.40;3.00;;;;;;;21.88;90.98;99325.90;107149;1250;72582;-74
2023/10/12 11:32:08;;;;;;;12.30;2.50;;;;;;;22.01;91.86;99321.79;106232;1250;60549;-73
2023/10/12 11:34:50;;;;;;;20.80;3.40;;;;;;;22.16;87.53;99321.98;106406;1251;60549;-75
2023/10/12 11:37:20;;;;;;;17.40;3.20;;;;;;;22.22;89.30;99309.95;107850;1250;73853;-74
2023/10/12 11:39:47;;;;;;;18.50;3.10;;;;;;;22.34;86.79;99311.31;106254;1250;71100;-73
2023/10/12 11:42:14;;;;;;;8.80;2.80;;;;;;;22.44;84.63;99304.00;106498;1250;71054;-74
2023/10/12 11:44:45;;;;;;;16.30;3.10;;;;;;;22.46;83.59;99310.45;106658;1253;61095;-75
2023/10/12 11:47:24;;;;;;;16.50;2.70;;;;;;;22.45;83.16;99299.80;106260;1250;60567;-74
2023/10/12 11:49:58;;;;;;;10.60;3.00;;;;;;;22.48;83.17;99303.55;106452;1250;74265;-73
2023/10/12 11:52:30;;;;;;;15.50;3.50;;;;;;;22.47;82.66;99307.34;107251;1250;71646;-74
2023/10/12 11:55:06;;;;;;;13.30;3.10;;;;;;;22.39;82.24;99303.44;106595;1252;72742;-74
2023/10/12 11:57:35;;;;;;;18.70;2.90;;;;;;;22.27;83.91;99303.36;106742;1253;60435;-72
2023/10/12 12:02:57;;;;;;;12.00;3.40;;;;;;;22.13;88.48;99295.23;106156;1254;73846;-73
2023/10/12 12:05:25;;;;;;;15.20;4.00;;;;;;;22.08;86.88;99289.96;106641;1254;72531;-72
2023/10/12 12:07:53;;;;;;;12.10;3.20;;;;;;;22.03;85.91;99285.23;106658;1250;72745;-74
2023/10/12 12:10:38;;;;;;;16.60;3.60;;;;;;;22.04;87.15;99281.70;107879;1250;60432;-74
2023/10/12 12:13:08;;;;;;;;;;;;;;;22.06;84.21;99278.88;106261;1254;60437;-73
2023/10/12 12:15:36;;;;;;;10.90;3.70;;;;;;;22.07;84.89;99280.00;106013;1250;73813;-73
2023/10/12 12:18:05;;;;;;;9.80;3.40;;;;;;;22.11;86.94;99273.63;106431;1250;69857;-74
2023/10/12 12:20:39;;;;;;;14.80;2.90;;;;;;;22.21;84.59;99268.27;107448;1251;72717;-73
2023/10/12 12:23:05;;;;;;;12.20;3.20;;;;;;;22.31;80.53;99274.79;106188;1251;60814;-74
2023/10/12 12:25:32;;;;;;;14.50;2.80;;;;;;;22.35;79.33;99266.23;107345;1253;60323;-74
2023/10/12 12:28:01;;;;;;;10.90;2.70;;;;;;;22.35;79.68;99261.98;106830;1255;72877;-74
2023/10/12 12:30:31;;;;;;;16.60;3.00;;;;;;;22.31;80.26;99258.52;106611;1250;71280;-75
2023/10/12 12:33:18;;;;;;;8.00;2.70;;;;;;;22.31;83.65;99255.55;107403;1250;71616;-73
2023/10/12 12:35:46;;;;;;;6.10;3.00;;;;;;;22.28;82.49;99246.98;106160;1250;60441;-74
2023/10/12 12:38:28;;;;;;;16.40;2.70;;;;;;;22.22;81.97;99255.84;106206;1254;60818;-73
2023/10/12 12:40:56;;;;;;;6.00;2.60;;;;;;;22.17;81.37;99246.27;107776;1254;72661;-74
2023/10/12 12:43:23;;;;;;;20.30;3.80;;;;;;;22.09;81.52;99237.53;106181;1250;71711;-74
2023/10/12 12:45:52;;;;;;;8.30;3.10;;;;;;;22.00;82.65;99234.00;105446;1256;1003046;-73
2023/10/12 12:48:22;;;;;;;11.60;4.80;;;;;;;21.94;84.32;99231.17;108180;1250;60768;-74
2023/10/12 12:50:48;;;;;;;18.30;6.80;;;;;;;21.88;86.48;99226.32;106472;1250;60742;-73
2023/10/12 12:53:19;;;;;;;14.00;5.10;;;;;;;21.86;85.43;99232.02;106154;1254;73527;-75
2023/10/12 12:55:46;;;;;;;10.40;4.20;;;;;;;21.82;82.98;99227.50;107618;1252;69778;-74
2023/10/12 12:58:17;;;;;;;15.90;4.30;;;;;;;21.77;84.27;99228.11;107433;1250;72644;-74
2023/10/12 13:00:48;;;;;;;16.50;3.70;;;;;;;21.73;85.77;99229.59;106160;1250;60534;-72
2023/10/12 13:03:16;;;;;;;20.80;3.70;;;;;;;21.71;86.42;99228.30;106127;1250;60418;-73
2023/10/12 13:05:43;;;;;;;14.30;3.80;;;;;;;21.68;86.04;99224.25;106143;1250;72741;-73
2023/10/12 13:08:11;;;;;;;19.80;2.60;;;;;;;21.62;86.05;99210.13;106986;1250;72008;-73
2023/10/12 13:10:38;;;;;;;10.80;3.50;;;;;;;21.59;88.08;99213.80;106208;1250;72660;-74
2023/10/12 13:13:06;;;;;;;12.50;3.50;;;;;;;21.54;87.77;99206.52;106305;1254;60422;-74
2023/10/12 13:15:41;;;;;;;9.60;3.80;;;;;;;21.53;90.02;99210.77;105417;1255;1002887;-73
2023/10/12 13:18:14;;;;;;;16.30;3.60;;;;;;;21.52;88.37;99212.40;107972;1250;72732;-73
2023/10/12 13:20:47;;;;;;;13.70;3.30;;;;;;;21.58;88.09;99208.72;106663;1255;71182;-73